sensor_id;sensor_type;location;lat;lon;timestamp;temperature;humidity
11126;DHT22;5617;54.046;10.676;2022-12-07T00:00:46;2.70;99.90
11126;DHT22;5617;54.046;10.676;2022-12-07T00:02:53;2.70;99.90
11126;DHT22;5617;54.046;10.676;2022-12-07T00:05:00;2.70;99.90
11126;DHT22;5617;54.046;10.676;2022-12-07T00:07:06;2.80;99.90
11126;DHT22;5617;54.046;10.676;2022-12-07T00:09:15;2.80;99.90
11126;DHT22;5617;54.046;10.676;2022-12-07T00:11:23;2.80;99.90
11126;DHT22;5617;54.046;10.676;2022-12-07T00:13:29;2.80;99.90
11126;DHT22;5617;54.046;10.676;2022-12-07T00:15:38;2.90;99.90
11126;DHT22;5617;54.046;10.676;2022-12-07T00:17:45;2.90;99.90
11126;DHT22;5617;54.046;10.676;2022-12-07T00:19:52;2.90;99.90
11126;DHT22;5617;54.046;10.676;2022-12-07T00:21:59;3.00;99.90
11126;DHT22;5617;54.046;10.676;2022-12-07T00:24:06;3.00;99.90
11126;DHT22;5617;54.046;10.676;2022-12-07T00:26:15;3.10;99.90
11126;DHT22;5617;54.046;10.676;2022-12-07T00:28:22;3.10;99.90
11126;DHT22;5617;54.046;10.676;2022-12-07T00:30:28;3.10;99.90
11126;DHT22;5617;54.046;10.676;2022-12-07T00:32:37;3.20;99.90
11126;DHT22;5617;54.046;10.676;2022-12-07T00:34:44;3.20;99.90
11126;DHT22;5617;54.046;10.676;2022-12-07T00:36:52;3.30;99.90
11126;DHT22;5617;54.046;10.676;2022-12-07T00:39:00;3.30;99.90
11126;DHT22;5617;54.046;10.676;2022-12-07T00:41:12;3.30;99.90
11126;DHT22;5617;54.046;10.676;2022-12-07T00:43:20;3.40;99.90
11126;DHT22;5617;54.046;10.676;2022-12-07T00:45:26;3.40;99.90
11126;DHT22;5617;54.046;10.676;2022-12-07T00:47:33;3.50;99.90
11126;DHT22;5617;54.046;10.676;2022-12-07T00:49:41;3.50;99.90
11126;DHT22;5617;54.046;10.676;2022-12-07T00:51:48;3.60;99.90
11126;DHT22;5617;54.046;10.676;2022-12-07T00:53:55;3.60;99.90
11126;DHT22;5617;54.046;10.676;2022-12-07T00:56:05;3.60;99.90
11126;DHT22;5617;54.046;10.676;2022-12-07T00:58:12;3.60;99.90
11126;DHT22;5617;54.046;10.676;2022-12-07T01:00:19;3.60;99.90
11126;DHT22;5617;54.046;10.676;2022-12-07T01:02:26;3.70;99.90
11126;DHT22;5617;54.046;10.676;2022-12-07T01:04:33;3.70;99.90
11126;DHT22;5617;54.046;10.676;2022-12-07T01:06:42;3.80;99.90
11126;DHT22;5617;54.046;10.676;2022-12-07T01:08:49;3.70;99.90
11126;DHT22;5617;54.046;10.676;2022-12-07T01:11:00;3.70;99.90
11126;DHT22;5617;54.046;10.676;2022-12-07T01:13:07;3.80;99.90
11126;DHT22;5617;54.046;10.676;2022-12-07T01:15:14;3.80;99.90
11126;DHT22;5617;54.046;10.676;2022-12-07T01:17:20;3.80;99.90
11126;DHT22;5617;54.046;10.676;2022-12-07T01:19:27;3.80;99.90
11126;DHT22;5617;54.046;10.676;2022-12-07T01:21:35;3.80;99.90
11126;DHT22;5617;54.046;10.676;2022-12-07T01:23:44;3.80;99.90
11126;DHT22;5617;54.046;10.676;2022-12-07T01:25:54;3.80;99.90
11126;DHT22;5617;54.046;10.676;2022-12-07T01:28:01;3.80;99.90
11126;DHT22;5617;54.046;10.676;2022-12-07T01:30:10;3.80;99.90
11126;DHT22;5617;54.046;10.676;2022-12-07T01:32:17;3.80;99.90
11126;DHT22;5617;54.046;10.676;2022-12-07T01:34:25;3.80;99.90
11126;DHT22;5617;54.046;10.676;2022-12-07T01:36:33;3.80;99.90
11126;DHT22;5617;54.046;10.676;2022-12-07T01:38:41;3.80;99.90
11126;DHT22;5617;54.046;10.676;2022-12-07T01:40:55;3.70;99.90
11126;DHT22;5617;54.046;10.676;2022-12-07T01:43:02;3.70;99.90
11126;DHT22;5617;54.046;10.676;2022-12-07T01:45:42;3.70;99.90
11126;DHT22;5617;54.046;10.676;2022-12-07T01:47:52;3.80;99.90
11126;DHT22;5617;54.046;10.676;2022-12-07T01:50:00;3.70;99.90
11126;DHT22;5617;54.046;10.676;2022-12-07T01:52:14;3.70;99.90
11126;DHT22;5617;54.046;10.676;2022-12-07T01:54:22;3.70;99.90
11126;DHT22;5617;54.046;10.676;2022-12-07T01:56:31;3.70;99.90
11126;DHT22;5617;54.046;10.676;2022-12-07T01:58:39;3.80;99.90
11126;DHT22;5617;54.046;10.676;2022-12-07T02:00:46;3.80;99.90
11126;DHT22;5617;54.046;10.676;2022-12-07T02:02:55;3.80;99.90
11126;DHT22;5617;54.046;10.676;2022-12-07T02:05:05;3.80;99.90
11126;DHT22;5617;54.046;10.676;2022-12-07T02:07:13;3.80;99.90
11126;DHT22;5617;54.046;10.676;2022-12-07T02:09:20;3.80;99.90
11126;DHT22;5617;54.046;10.676;2022-12-07T02:11:27;3.80;99.90
11126;DHT22;5617;54.046;10.676;2022-12-07T02:13:37;3.80;99.90
11126;DHT22;5617;54.046;10.676;2022-12-07T02:15:58;3.80;99.90
11126;DHT22;5617;54.046;10.676;2022-12-07T02:18:11;3.80;99.90
11126;DHT22;5617;54.046;10.676;2022-12-07T02:20:26;3.80;99.90
11126;DHT22;5617;54.046;10.676;2022-12-07T02:22:54;3.80;99.90
11126;DHT22;5617;54.046;10.676;2022-12-07T02:25:08;3.90;99.90
11126;DHT22;5617;54.046;10.676;2022-12-07T02:27:35;3.90;99.90
11126;DHT22;5617;54.046;10.676;2022-12-07T02:29:49;3.90;99.90
11126;DHT22;5617;54.046;10.676;2022-12-07T02:32:03;3.90;99.90
11126;DHT22;5617;54.046;10.676;2022-12-07T02:34:20;3.90;99.90
11126;DHT22;5617;54.046;10.676;2022-12-07T02:36:32;4.00;99.90
11126;DHT22;5617;54.046;10.676;2022-12-07T02:38:45;4.00;99.90
11126;DHT22;5617;54.046;10.676;2022-12-07T02:41:00;4.00;99.90
11126;DHT22;5617;54.046;10.676;2022-12-07T02:43:13;4.00;99.90
11126;DHT22;5617;54.046;10.676;2022-12-07T02:45:26;4.00;99.90
11126;DHT22;5617;54.046;10.676;2022-12-07T02:47:36;4.00;99.90
11126;DHT22;5617;54.046;10.676;2022-12-07T02:49:44;4.00;99.90
11126;DHT22;5617;54.046;10.676;2022-12-07T02:51:52;4.00;99.90
11126;DHT22;5617;54.046;10.676;2022-12-07T02:53:59;4.00;99.90
11126;DHT22;5617;54.046;10.676;2022-12-07T02:56:12;4.00;99.90
11126;DHT22;5617;54.046;10.676;2022-12-07T02:58:31;4.10;99.90
11126;DHT22;5617;54.046;10.676;2022-12-07T03:00:54;4.10;99.90
11126;DHT22;5617;54.046;10.676;2022-12-07T03:03:10;4.00;99.90
11126;DHT22;5617;54.046;10.676;2022-12-07T03:05:40;4.00;99.90
11126;DHT22;5617;54.046;10.676;2022-12-07T03:07:54;4.00;99.90
11126;DHT22;5617;54.046;10.676;2022-12-07T03:10:08;3.90;99.90
11126;DHT22;5617;54.046;10.676;2022-12-07T03:12:21;3.90;99.90
11126;DHT22;5617;54.046;10.676;2022-12-07T03:14:34;3.90;99.90
11126;DHT22;5617;54.046;10.676;2022-12-07T03:16:48;3.90;99.90
11126;DHT22;5617;54.046;10.676;2022-12-07T03:19:01;3.90;99.90
11126;DHT22;5617;54.046;10.676;2022-12-07T03:21:13;3.90;99.90
11126;DHT22;5617;54.046;10.676;2022-12-07T03:23:21;3.90;99.90
11126;DHT22;5617;54.046;10.676;2022-12-07T03:25:30;3.90;99.90
11126;DHT22;5617;54.046;10.676;2022-12-07T03:27:40;3.90;99.90
11126;DHT22;5617;54.046;10.676;2022-12-07T03:29:52;3.80;99.90
11126;DHT22;5617;54.046;10.676;2022-12-07T03:32:05;3.80;99.90
11126;DHT22;5617;54.046;10.676;2022-12-07T03:34:18;3.80;99.90
11126;DHT22;5617;54.046;10.676;2022-12-07T03:36:32;3.80;99.90
11126;DHT22;5617;54.046;10.676;2022-12-07T03:38:45;3.80;99.90
11126;DHT22;5617;54.046;10.676;2022-12-07T03:40:57;3.80;99.90
11126;DHT22;5617;54.046;10.676;2022-12-07T03:43:07;3.80;99.90
11126;DHT22;5617;54.046;10.676;2022-12-07T03:45:15;3.80;99.90
11126;DHT22;5617;54.046;10.676;2022-12-07T03:47:29;3.80;99.90
11126;DHT22;5617;54.046;10.676;2022-12-07T03:49:42;3.80;99.90
11126;DHT22;5617;54.046;10.676;2022-12-07T03:51:55;3.80;99.90
11126;DHT22;5617;54.046;10.676;2022-12-07T03:54:09;3.80;99.90
11126;DHT22;5617;54.046;10.676;2022-12-07T03:56:18;3.80;99.90
11126;DHT22;5617;54.046;10.676;2022-12-07T03:58:26;3.80;99.90
11126;DHT22;5617;54.046;10.676;2022-12-07T04:00:33;3.70;99.90
11126;DHT22;5617;54.046;10.676;2022-12-07T04:02:42;3.80;99.90
11126;DHT22;5617;54.046;10.676;2022-12-07T04:04:49;3.70;99.90
11126;DHT22;5617;54.046;10.676;2022-12-07T04:06:56;3.80;99.90
11126;DHT22;5617;54.046;10.676;2022-12-07T04:09:03;3.70;99.90
11126;DHT22;5617;54.046;10.676;2022-12-07T04:11:10;3.70;99.90
11126;DHT22;5617;54.046;10.676;2022-12-07T04:13:17;3.70;99.90
11126;DHT22;5617;54.046;10.676;2022-12-07T04:15:24;3.70;99.90
11126;DHT22;5617;54.046;10.676;2022-12-07T04:17:32;3.70;99.90
11126;DHT22;5617;54.046;10.676;2022-12-07T04:19:40;3.70;99.90
11126;DHT22;5617;54.046;10.676;2022-12-07T04:21:47;3.70;99.90
11126;DHT22;5617;54.046;10.676;2022-12-07T04:23:54;3.70;99.90
11126;DHT22;5617;54.046;10.676;2022-12-07T04:26:01;3.70;99.90
11126;DHT22;5617;54.046;10.676;2022-12-07T04:28:08;3.70;99.90
11126;DHT22;5617;54.046;10.676;2022-12-07T04:30:15;3.60;99.90
11126;DHT22;5617;54.046;10.676;2022-12-07T04:32:23;3.70;99.90
11126;DHT22;5617;54.046;10.676;2022-12-07T04:34:30;3.60;99.90
11126;DHT22;5617;54.046;10.676;2022-12-07T04:36:39;3.60;99.90
11126;DHT22;5617;54.046;10.676;2022-12-07T04:38:46;3.60;99.90
11126;DHT22;5617;54.046;10.676;2022-12-07T04:40:52;3.60;99.90
11126;DHT22;5617;54.046;10.676;2022-12-07T04:42:59;3.60;99.90
11126;DHT22;5617;54.046;10.676;2022-12-07T04:45:07;3.60;99.90
11126;DHT22;5617;54.046;10.676;2022-12-07T04:47:14;3.60;99.90
11126;DHT22;5617;54.046;10.676;2022-12-07T04:49:21;3.50;99.90
11126;DHT22;5617;54.046;10.676;2022-12-07T04:51:29;3.50;99.90
11126;DHT22;5617;54.046;10.676;2022-12-07T04:53:37;3.50;99.90
11126;DHT22;5617;54.046;10.676;2022-12-07T04:55:44;3.50;99.90
11126;DHT22;5617;54.046;10.676;2022-12-07T04:57:51;3.50;99.90
11126;DHT22;5617;54.046;10.676;2022-12-07T04:59:58;3.40;99.90
11126;DHT22;5617;54.046;10.676;2022-12-07T05:02:05;3.40;99.90
11126;DHT22;5617;54.046;10.676;2022-12-07T05:04:12;3.40;99.90
11126;DHT22;5617;54.046;10.676;2022-12-07T05:06:19;3.40;99.90
11126;DHT22;5617;54.046;10.676;2022-12-07T05:08:26;3.40;99.90
11126;DHT22;5617;54.046;10.676;2022-12-07T05:10:34;3.40;99.90
11126;DHT22;5617;54.046;10.676;2022-12-07T05:12:40;3.40;99.90
11126;DHT22;5617;54.046;10.676;2022-12-07T05:14:48;3.40;99.90
11126;DHT22;5617;54.046;10.676;2022-12-07T05:16:55;3.30;99.90
11126;DHT22;5617;54.046;10.676;2022-12-07T05:19:02;3.30;99.90
11126;DHT22;5617;54.046;10.676;2022-12-07T05:21:09;3.30;99.90
11126;DHT22;5617;54.046;10.676;2022-12-07T05:23:16;3.40;99.90
11126;DHT22;5617;54.046;10.676;2022-12-07T05:25:23;3.30;99.90
11126;DHT22;5617;54.046;10.676;2022-12-07T05:27:31;3.30;99.90
11126;DHT22;5617;54.046;10.676;2022-12-07T05:29:38;3.30;99.90
11126;DHT22;5617;54.046;10.676;2022-12-07T05:31:45;3.30;99.90
11126;DHT22;5617;54.046;10.676;2022-12-07T05:33:52;3.30;99.90
11126;DHT22;5617;54.046;10.676;2022-12-07T05:35:59;3.30;99.90
11126;DHT22;5617;54.046;10.676;2022-12-07T05:38:11;3.20;99.90
11126;DHT22;5617;54.046;10.676;2022-12-07T05:40:18;3.20;99.90
11126;DHT22;5617;54.046;10.676;2022-12-07T05:42:26;3.20;99.90
11126;DHT22;5617;54.046;10.676;2022-12-07T05:44:33;3.10;99.90
11126;DHT22;5617;54.046;10.676;2022-12-07T05:46:40;3.10;99.90
11126;DHT22;5617;54.046;10.676;2022-12-07T05:48:48;3.10;99.90
11126;DHT22;5617;54.046;10.676;2022-12-07T05:50:54;3.00;99.90
11126;DHT22;5617;54.046;10.676;2022-12-07T05:53:01;3.00;99.90
11126;DHT22;5617;54.046;10.676;2022-12-07T05:55:08;3.00;99.90
11126;DHT22;5617;54.046;10.676;2022-12-07T05:57:15;2.90;99.90
11126;DHT22;5617;54.046;10.676;2022-12-07T05:59:22;2.90;99.90
11126;DHT22;5617;54.046;10.676;2022-12-07T06:01:30;2.90;99.90
11126;DHT22;5617;54.046;10.676;2022-12-07T06:03:37;2.80;99.90
11126;DHT22;5617;54.046;10.676;2022-12-07T06:05:43;2.80;99.90
11126;DHT22;5617;54.046;10.676;2022-12-07T06:07:50;2.80;99.90
11126;DHT22;5617;54.046;10.676;2022-12-07T06:09:57;2.80;99.90
11126;DHT22;5617;54.046;10.676;2022-12-07T06:12:05;2.80;99.90
11126;DHT22;5617;54.046;10.676;2022-12-07T06:14:30;2.80;99.90
11126;DHT22;5617;54.046;10.676;2022-12-07T06:16:38;2.80;99.90
11126;DHT22;5617;54.046;10.676;2022-12-07T06:18:45;2.80;99.90
11126;DHT22;5617;54.046;10.676;2022-12-07T06:20:52;2.80;99.90
11126;DHT22;5617;54.046;10.676;2022-12-07T06:22:59;2.80;99.90
11126;DHT22;5617;54.046;10.676;2022-12-07T06:25:07;2.80;99.90
11126;DHT22;5617;54.046;10.676;2022-12-07T06:27:14;2.80;99.90
11126;DHT22;5617;54.046;10.676;2022-12-07T06:29:22;2.80;99.90
11126;DHT22;5617;54.046;10.676;2022-12-07T06:31:29;2.80;99.90
11126;DHT22;5617;54.046;10.676;2022-12-07T06:33:37;2.80;99.90
11126;DHT22;5617;54.046;10.676;2022-12-07T06:35:44;2.80;99.90
11126;DHT22;5617;54.046;10.676;2022-12-07T06:37:51;2.80;99.90
11126;DHT22;5617;54.046;10.676;2022-12-07T06:39:58;2.80;99.90
11126;DHT22;5617;54.046;10.676;2022-12-07T06:42:04;2.70;99.90
11126;DHT22;5617;54.046;10.676;2022-12-07T06:44:12;2.70;99.90
11126;DHT22;5617;54.046;10.676;2022-12-07T06:46:19;2.70;99.90
11126;DHT22;5617;54.046;10.676;2022-12-07T06:48:26;2.60;99.90
11126;DHT22;5617;54.046;10.676;2022-12-07T06:50:34;2.60;99.90
11126;DHT22;5617;54.046;10.676;2022-12-07T06:52:41;2.50;99.90
11126;DHT22;5617;54.046;10.676;2022-12-07T06:54:49;2.50;99.90
11126;DHT22;5617;54.046;10.676;2022-12-07T06:56:56;2.40;99.90
11126;DHT22;5617;54.046;10.676;2022-12-07T06:59:03;2.40;99.90
11126;DHT22;5617;54.046;10.676;2022-12-07T07:01:14;2.30;99.90
11126;DHT22;5617;54.046;10.676;2022-12-07T07:03:21;2.30;99.90
11126;DHT22;5617;54.046;10.676;2022-12-07T07:05:29;2.30;99.90
11126;DHT22;5617;54.046;10.676;2022-12-07T07:07:37;2.20;99.90
11126;DHT22;5617;54.046;10.676;2022-12-07T07:09:44;2.20;99.90
11126;DHT22;5617;54.046;10.676;2022-12-07T07:11:51;2.20;99.90
11126;DHT22;5617;54.046;10.676;2022-12-07T07:13:58;2.10;99.90
11126;DHT22;5617;54.046;10.676;2022-12-07T07:16:07;2.10;99.90
11126;DHT22;5617;54.046;10.676;2022-12-07T07:18:15;2.10;99.90
11126;DHT22;5617;54.046;10.676;2022-12-07T07:20:22;2.10;99.90
11126;DHT22;5617;54.046;10.676;2022-12-07T07:22:29;2.10;99.90
11126;DHT22;5617;54.046;10.676;2022-12-07T07:24:38;2.10;99.90
11126;DHT22;5617;54.046;10.676;2022-12-07T07:26:45;2.10;99.90
11126;DHT22;5617;54.046;10.676;2022-12-07T07:28:52;2.10;99.90
11126;DHT22;5617;54.046;10.676;2022-12-07T07:30:58;2.00;99.90
11126;DHT22;5617;54.046;10.676;2022-12-07T07:33:05;2.00;99.90
11126;DHT22;5617;54.046;10.676;2022-12-07T07:35:12;2.00;99.90
11126;DHT22;5617;54.046;10.676;2022-12-07T07:37:19;2.00;99.90
11126;DHT22;5617;54.046;10.676;2022-12-07T07:39:27;2.00;99.90
11126;DHT22;5617;54.046;10.676;2022-12-07T07:41:35;1.90;99.90
11126;DHT22;5617;54.046;10.676;2022-12-07T07:43:42;1.90;99.90
11126;DHT22;5617;54.046;10.676;2022-12-07T07:45:50;1.90;99.90
11126;DHT22;5617;54.046;10.676;2022-12-07T07:47:57;1.90;99.90
11126;DHT22;5617;54.046;10.676;2022-12-07T07:50:05;1.90;99.90
11126;DHT22;5617;54.046;10.676;2022-12-07T07:52:12;1.80;99.90
11126;DHT22;5617;54.046;10.676;2022-12-07T07:54:19;1.80;99.90
11126;DHT22;5617;54.046;10.676;2022-12-07T07:56:26;1.80;99.90
11126;DHT22;5617;54.046;10.676;2022-12-07T07:58:35;1.80;99.90
11126;DHT22;5617;54.046;10.676;2022-12-07T08:00:44;1.80;99.90
11126;DHT22;5617;54.046;10.676;2022-12-07T08:02:51;1.80;99.90
11126;DHT22;5617;54.046;10.676;2022-12-07T08:04:57;1.80;99.90
11126;DHT22;5617;54.046;10.676;2022-12-07T08:07:05;1.80;99.90
11126;DHT22;5617;54.046;10.676;2022-12-07T08:09:12;1.90;99.90
11126;DHT22;5617;54.046;10.676;2022-12-07T08:11:19;1.90;99.90
11126;DHT22;5617;54.046;10.676;2022-12-07T08:13:25;1.90;99.90
11126;DHT22;5617;54.046;10.676;2022-12-07T08:15:36;1.90;99.90
11126;DHT22;5617;54.046;10.676;2022-12-07T08:17:43;2.00;99.90
11126;DHT22;5617;54.046;10.676;2022-12-07T08:19:50;2.00;99.90
11126;DHT22;5617;54.046;10.676;2022-12-07T08:21:57;2.00;99.90
11126;DHT22;5617;54.046;10.676;2022-12-07T08:24:04;2.00;99.90
11126;DHT22;5617;54.046;10.676;2022-12-07T08:26:13;2.00;99.90
11126;DHT22;5617;54.046;10.676;2022-12-07T08:28:20;2.10;99.90
11126;DHT22;5617;54.046;10.676;2022-12-07T08:30:28;2.20;99.90
11126;DHT22;5617;54.046;10.676;2022-12-07T08:32:36;2.20;99.90
11126;DHT22;5617;54.046;10.676;2022-12-07T08:34:43;2.20;99.90
11126;DHT22;5617;54.046;10.676;2022-12-07T08:36:51;2.20;99.90
11126;DHT22;5617;54.046;10.676;2022-12-07T08:38:58;2.30;99.90
11126;DHT22;5617;54.046;10.676;2022-12-07T08:41:05;2.30;99.90
11126;DHT22;5617;54.046;10.676;2022-12-07T08:43:12;2.30;99.90
11126;DHT22;5617;54.046;10.676;2022-12-07T08:45:20;2.30;99.90
11126;DHT22;5617;54.046;10.676;2022-12-07T08:47:28;2.40;99.90
11126;DHT22;5617;54.046;10.676;2022-12-07T08:49:38;2.40;99.90
11126;DHT22;5617;54.046;10.676;2022-12-07T08:51:46;2.40;99.90
11126;DHT22;5617;54.046;10.676;2022-12-07T08:53:54;2.40;99.90
11126;DHT22;5617;54.046;10.676;2022-12-07T08:56:02;2.50;99.90
11126;DHT22;5617;54.046;10.676;2022-12-07T08:58:10;2.40;99.90
11126;DHT22;5617;54.046;10.676;2022-12-07T09:00:17;2.50;99.90
11126;DHT22;5617;54.046;10.676;2022-12-07T09:02:24;2.50;99.90
11126;DHT22;5617;54.046;10.676;2022-12-07T09:04:31;2.60;99.90
11126;DHT22;5617;54.046;10.676;2022-12-07T09:06:40;2.60;99.90
11126;DHT22;5617;54.046;10.676;2022-12-07T09:08:51;2.60;99.90
11126;DHT22;5617;54.046;10.676;2022-12-07T09:10:59;2.60;99.90
11126;DHT22;5617;54.046;10.676;2022-12-07T09:13:06;2.70;99.90
11126;DHT22;5617;54.046;10.676;2022-12-07T09:15:13;2.70;99.90
11126;DHT22;5617;54.046;10.676;2022-12-07T09:17:19;2.70;99.90
11126;DHT22;5617;54.046;10.676;2022-12-07T09:19:27;2.80;99.90
11126;DHT22;5617;54.046;10.676;2022-12-07T09:21:33;2.80;99.90
11126;DHT22;5617;54.046;10.676;2022-12-07T09:23:42;2.80;99.90
11126;DHT22;5617;54.046;10.676;2022-12-07T09:25:49;2.80;99.90
11126;DHT22;5617;54.046;10.676;2022-12-07T09:27:56;2.90;99.90
11126;DHT22;5617;54.046;10.676;2022-12-07T09:30:05;2.90;99.90
11126;DHT22;5617;54.046;10.676;2022-12-07T09:32:12;3.00;99.90
11126;DHT22;5617;54.046;10.676;2022-12-07T09:34:19;3.00;99.90
11126;DHT22;5617;54.046;10.676;2022-12-07T09:36:27;3.00;99.90
11126;DHT22;5617;54.046;10.676;2022-12-07T09:38:34;3.00;99.90
11126;DHT22;5617;54.046;10.676;2022-12-07T09:40:43;3.10;99.90
11126;DHT22;5617;54.046;10.676;2022-12-07T09:42:51;3.10;99.90
11126;DHT22;5617;54.046;10.676;2022-12-07T09:44:59;3.10;99.90
11126;DHT22;5617;54.046;10.676;2022-12-07T09:47:09;3.30;99.90
11126;DHT22;5617;54.046;10.676;2022-12-07T09:49:18;3.20;99.90
11126;DHT22;5617;54.046;10.676;2022-12-07T09:51:26;3.20;99.90
11126;DHT22;5617;54.046;10.676;2022-12-07T09:53:34;3.20;99.90
11126;DHT22;5617;54.046;10.676;2022-12-07T09:55:44;3.20;99.90
11126;DHT22;5617;54.046;10.676;2022-12-07T09:57:52;3.20;99.90
11126;DHT22;5617;54.046;10.676;2022-12-07T10:00:03;3.20;99.90
11126;DHT22;5617;54.046;10.676;2022-12-07T10:02:28;3.20;99.90
11126;DHT22;5617;54.046;10.676;2022-12-07T10:04:37;3.20;99.90
11126;DHT22;5617;54.046;10.676;2022-12-07T10:06:44;3.20;99.90
11126;DHT22;5617;54.046;10.676;2022-12-07T10:08:53;3.30;99.90
11126;DHT22;5617;54.046;10.676;2022-12-07T10:11:02;3.30;99.90
11126;DHT22;5617;54.046;10.676;2022-12-07T10:13:11;3.30;99.90
11126;DHT22;5617;54.046;10.676;2022-12-07T10:15:18;3.30;99.90
11126;DHT22;5617;54.046;10.676;2022-12-07T10:17:30;3.30;99.90
11126;DHT22;5617;54.046;10.676;2022-12-07T10:19:37;3.30;99.90
11126;DHT22;5617;54.046;10.676;2022-12-07T10:22:00;3.30;99.90
11126;DHT22;5617;54.046;10.676;2022-12-07T10:24:14;3.30;99.90
11126;DHT22;5617;54.046;10.676;2022-12-07T10:26:30;3.40;99.90
11126;DHT22;5617;54.046;10.676;2022-12-07T10:28:37;3.40;99.90
11126;DHT22;5617;54.046;10.676;2022-12-07T10:30:51;3.40;99.90
11126;DHT22;5617;54.046;10.676;2022-12-07T10:32:58;3.40;99.90
11126;DHT22;5617;54.046;10.676;2022-12-07T10:35:21;3.50;99.90
11126;DHT22;5617;54.046;10.676;2022-12-07T10:37:29;3.50;99.90
11126;DHT22;5617;54.046;10.676;2022-12-07T10:39:41;3.60;99.90
11126;DHT22;5617;54.046;10.676;2022-12-07T10:41:58;3.60;99.90
11126;DHT22;5617;54.046;10.676;2022-12-07T10:44:20;3.60;99.90
11126;DHT22;5617;54.046;10.676;2022-12-07T10:46:43;3.60;99.90
11126;DHT22;5617;54.046;10.676;2022-12-07T10:48:59;3.70;99.90
11126;DHT22;5617;54.046;10.676;2022-12-07T10:51:13;3.70;99.90
11126;DHT22;5617;54.046;10.676;2022-12-07T10:53:48;3.80;99.90
11126;DHT22;5617;54.046;10.676;2022-12-07T10:56:21;3.70;99.90
11126;DHT22;5617;54.046;10.676;2022-12-07T10:58:52;3.70;99.90
11126;DHT22;5617;54.046;10.676;2022-12-07T11:01:09;3.80;99.90
11126;DHT22;5617;54.046;10.676;2022-12-07T11:03:41;3.80;99.90
11126;DHT22;5617;54.046;10.676;2022-12-07T11:05:56;3.80;99.90
11126;DHT22;5617;54.046;10.676;2022-12-07T11:08:16;3.90;99.90
11126;DHT22;5617;54.046;10.676;2022-12-07T11:10:31;3.90;99.90
11126;DHT22;5617;54.046;10.676;2022-12-07T11:13:04;3.90;99.90
11126;DHT22;5617;54.046;10.676;2022-12-07T11:15:22;4.00;99.90
11126;DHT22;5617;54.046;10.676;2022-12-07T11:17:36;4.00;99.90
11126;DHT22;5617;54.046;10.676;2022-12-07T11:19:58;4.00;99.90
11126;DHT22;5617;54.046;10.676;2022-12-07T11:22:13;4.00;99.90
11126;DHT22;5617;54.046;10.676;2022-12-07T11:24:29;4.00;99.90
11126;DHT22;5617;54.046;10.676;2022-12-07T11:26:57;4.10;99.90
11126;DHT22;5617;54.046;10.676;2022-12-07T11:29:30;4.10;99.90
11126;DHT22;5617;54.046;10.676;2022-12-07T11:31:52;4.10;99.90
11126;DHT22;5617;54.046;10.676;2022-12-07T11:34:09;4.10;99.90
11126;DHT22;5617;54.046;10.676;2022-12-07T11:36:33;4.20;99.90
11126;DHT22;5617;54.046;10.676;2022-12-07T11:38:45;4.20;99.90
11126;DHT22;5617;54.046;10.676;2022-12-07T11:40:58;4.20;99.90
11126;DHT22;5617;54.046;10.676;2022-12-07T11:43:21;4.30;99.90
11126;DHT22;5617;54.046;10.676;2022-12-07T11:45:32;4.30;99.90
11126;DHT22;5617;54.046;10.676;2022-12-07T11:47:46;4.30;99.90
11126;DHT22;5617;54.046;10.676;2022-12-07T11:49:56;4.30;99.90
11126;DHT22;5617;54.046;10.676;2022-12-07T11:52:06;4.30;99.90
11126;DHT22;5617;54.046;10.676;2022-12-07T11:54:21;4.30;99.90
11126;DHT22;5617;54.046;10.676;2022-12-07T11:56:30;4.30;99.90
11126;DHT22;5617;54.046;10.676;2022-12-07T11:58:48;4.30;99.90
11126;DHT22;5617;54.046;10.676;2022-12-07T12:01:04;4.30;99.90
11126;DHT22;5617;54.046;10.676;2022-12-07T12:03:23;4.20;99.90
11126;DHT22;5617;54.046;10.676;2022-12-07T12:05:35;4.20;99.90
11126;DHT22;5617;54.046;10.676;2022-12-07T12:07:43;4.30;99.90
11126;DHT22;5617;54.046;10.676;2022-12-07T12:09:53;4.30;99.90
11126;DHT22;5617;54.046;10.676;2022-12-07T12:12:16;4.30;99.90
11126;DHT22;5617;54.046;10.676;2022-12-07T12:14:37;4.30;99.90
11126;DHT22;5617;54.046;10.676;2022-12-07T12:19:27;4.30;99.90
11126;DHT22;5617;54.046;10.676;2022-12-07T12:21:39;4.30;99.90
11126;DHT22;5617;54.046;10.676;2022-12-07T12:23:51;4.20;99.90
11126;DHT22;5617;54.046;10.676;2022-12-07T12:26:05;4.20;99.90
11126;DHT22;5617;54.046;10.676;2022-12-07T12:28:23;4.20;99.90
11126;DHT22;5617;54.046;10.676;2022-12-07T12:30:35;4.20;99.90
11126;DHT22;5617;54.046;10.676;2022-12-07T12:32:42;4.30;99.90
11126;DHT22;5617;54.046;10.676;2022-12-07T12:37:46;4.30;99.90
11126;DHT22;5617;54.046;10.676;2022-12-07T12:40:40;4.20;99.90
11126;DHT22;5617;54.046;10.676;2022-12-07T12:42:48;4.30;99.90
11126;DHT22;5617;54.046;10.676;2022-12-07T12:45:16;4.30;99.90
11126;DHT22;5617;54.046;10.676;2022-12-07T12:47:42;4.30;99.90
11126;DHT22;5617;54.046;10.676;2022-12-07T12:50:17;4.30;99.90
11126;DHT22;5617;54.046;10.676;2022-12-07T12:53:02;4.30;99.90
11126;DHT22;5617;54.046;10.676;2022-12-07T12:55:14;4.30;99.90
11126;DHT22;5617;54.046;10.676;2022-12-07T12:57:28;4.40;99.90
11126;DHT22;5617;54.046;10.676;2022-12-07T12:59:36;4.40;99.90
11126;DHT22;5617;54.046;10.676;2022-12-07T13:01:46;4.40;99.90
11126;DHT22;5617;54.046;10.676;2022-12-07T13:03:55;4.40;99.90
11126;DHT22;5617;54.046;10.676;2022-12-07T13:06:20;4.40;99.90
11126;DHT22;5617;54.046;10.676;2022-12-07T13:08:41;4.40;99.90
11126;DHT22;5617;54.046;10.676;2022-12-07T13:10:48;4.40;99.90
11126;DHT22;5617;54.046;10.676;2022-12-07T13:12:56;4.30;99.90
11126;DHT22;5617;54.046;10.676;2022-12-07T13:15:04;4.30;99.90
11126;DHT22;5617;54.046;10.676;2022-12-07T13:17:56;4.30;99.90
11126;DHT22;5617;54.046;10.676;2022-12-07T13:20:06;4.30;99.90
11126;DHT22;5617;54.046;10.676;2022-12-07T13:22:40;4.20;99.90
11126;DHT22;5617;54.046;10.676;2022-12-07T13:24:55;4.20;99.90
11126;DHT22;5617;54.046;10.676;2022-12-07T13:27:11;4.20;99.90
11126;DHT22;5617;54.046;10.676;2022-12-07T13:29:19;4.20;99.90
11126;DHT22;5617;54.046;10.676;2022-12-07T13:31:32;4.10;99.90
11126;DHT22;5617;54.046;10.676;2022-12-07T13:33:43;4.10;99.90
11126;DHT22;5617;54.046;10.676;2022-12-07T13:35:54;4.10;99.90
11126;DHT22;5617;54.046;10.676;2022-12-07T13:38:13;4.00;99.90
11126;DHT22;5617;54.046;10.676;2022-12-07T13:40:23;4.00;99.90
11126;DHT22;5617;54.046;10.676;2022-12-07T13:42:31;3.90;99.90
11126;DHT22;5617;54.046;10.676;2022-12-07T13:44:40;3.90;99.90
11126;DHT22;5617;54.046;10.676;2022-12-07T13:46:57;3.80;99.90
11126;DHT22;5617;54.046;10.676;2022-12-07T13:49:17;3.80;99.90
11126;DHT22;5617;54.046;10.676;2022-12-07T13:51:26;3.80;99.90
11126;DHT22;5617;54.046;10.676;2022-12-07T13:53:46;3.70;99.90
11126;DHT22;5617;54.046;10.676;2022-12-07T13:55:53;3.70;99.90
11126;DHT22;5617;54.046;10.676;2022-12-07T13:58:00;3.60;99.90
11126;DHT22;5617;54.046;10.676;2022-12-07T14:00:15;3.60;99.90
11126;DHT22;5617;54.046;10.676;2022-12-07T14:02:26;3.50;99.90
11126;DHT22;5617;54.046;10.676;2022-12-07T14:04:35;3.50;99.90